createdAt,value
2023-04-06T00:01:27.425Z,6.70
2023-04-06T00:03:59.162Z,6.30
2023-04-06T00:06:28.759Z,7.20
2023-04-06T00:08:57.864Z,7.20
2023-04-06T00:11:26.974Z,7.70
2023-04-06T00:13:55.565Z,7.80
2023-04-06T00:16:25.051Z,8.40
2023-04-06T00:18:54.130Z,8.10
2023-04-06T00:21:23.068Z,8.00
2023-04-06T00:23:51.188Z,8.00
2023-04-06T00:26:19.428Z,8.50
2023-04-06T00:28:51.889Z,9.80
2023-04-06T00:31:20.230Z,11.00
2023-04-06T00:33:49.260Z,10.20
2023-04-06T00:36:17.944Z,11.60
2023-04-06T00:38:46.359Z,17.70
2023-04-06T00:41:22.266Z,17.70
2023-04-06T00:43:51.473Z,9.90
2023-04-06T00:46:22.079Z,16.40
2023-04-06T00:48:51.603Z,11.50
2023-04-06T00:51:19.886Z,12.20
2023-04-06T00:53:49.031Z,9.50
2023-04-06T00:56:17.738Z,10.00
2023-04-06T00:58:53.446Z,10.90
2023-04-06T01:01:25.464Z,10.80
2023-04-06T01:03:59.042Z,10.40
2023-04-06T01:06:27.970Z,8.40
2023-04-06T01:09:02.131Z,11.00
2023-04-06T01:11:33.049Z,10.80
2023-04-06T01:14:15.946Z,10.50
2023-04-06T01:16:53.283Z,11.10
2023-04-06T01:19:26.145Z,11.30
2023-04-06T01:21:56.128Z,12.30
2023-04-06T01:24:53.305Z,12.50
2023-04-06T01:27:29.842Z,12.80
2023-04-06T01:30:02.047Z,11.50
2023-04-06T01:32:44.161Z,11.20
2023-04-06T01:35:14.128Z,10.70
2023-04-06T01:37:47.172Z,11.40
2023-04-06T01:40:18.415Z,10.80
2023-04-06T01:42:50.026Z,12.20
2023-04-06T01:45:28.622Z,11.20
2023-04-06T01:48:00.973Z,11.40
2023-04-06T01:50:29.942Z,10.80
2023-04-06T01:52:58.921Z,9.60
2023-04-06T01:55:28.492Z,10.10
2023-04-06T01:58:20.329Z,10.70
2023-04-06T02:00:48.763Z,10.60
2023-04-06T02:03:18.706Z,11.70
2023-04-06T02:05:48.358Z,13.30
2023-04-06T02:08:25.742Z,13.60
2023-04-06T02:10:54.068Z,14.70
2023-04-06T02:13:29.549Z,19.60
2023-04-06T02:15:59.160Z,20.80
2023-04-06T02:18:30.800Z,23.80
2023-04-06T02:20:59.066Z,23.50
2023-04-06T02:23:28.017Z,17.40
2023-04-06T02:25:59.081Z,20.50
2023-04-06T02:28:27.761Z,13.80
2023-04-06T02:30:56.298Z,11.80
2023-04-06T02:33:28.699Z,10.90
2023-04-06T02:35:56.953Z,11.40
2023-04-06T02:38:25.817Z,11.50
2023-04-06T02:40:54.891Z,10.50
2023-04-06T02:43:28.118Z,11.10
2023-04-06T02:46:08.732Z,11.40
2023-04-06T02:48:40.192Z,10.50
2023-04-06T02:51:12.045Z,11.90
2023-04-06T02:53:44.597Z,12.70
2023-04-06T02:56:14.573Z,11.70
2023-04-06T02:58:49.736Z,11.50
2023-04-06T03:01:19.261Z,12.00
2023-04-06T03:03:50.070Z,12.10
2023-04-06T03:06:23.884Z,12.50
2023-04-06T03:08:58.145Z,11.80
2023-04-06T03:11:27.822Z,11.60
2023-04-06T03:13:56.335Z,12.00
2023-04-06T03:16:27.308Z,11.40
2023-04-06T03:18:56.687Z,12.80
2023-04-06T03:21:25.637Z,11.00
2023-04-06T03:23:54.934Z,11.10
2023-04-06T03:26:23.650Z,11.40
2023-04-06T03:28:53.254Z,12.80
2023-04-06T03:31:24.360Z,14.50
2023-04-06T03:33:58.163Z,15.40
2023-04-06T03:36:31.465Z,16.20
2023-04-06T03:39:01.631Z,21.60
2023-04-06T03:41:32.843Z,21.00
2023-04-06T03:44:20.433Z,20.50
2023-04-06T03:46:48.901Z,19.50
2023-04-06T03:49:23.142Z,17.30
2023-04-06T03:51:52.629Z,13.30
2023-04-06T03:54:20.792Z,14.50
2023-04-06T03:56:48.986Z,12.40
2023-04-06T03:59:17.509Z,11.50
2023-04-06T04:01:46.624Z,11.00
2023-04-06T04:04:15.519Z,11.80
2023-04-06T04:06:43.967Z,10.80
2023-04-06T04:09:12.497Z,10.20
2023-04-06T04:11:41.719Z,9.50
2023-04-06T04:14:10.118Z,10.50
2023-04-06T04:16:40.591Z,10.00
2023-04-06T04:19:09.562Z,9.90
2023-04-06T04:21:43.383Z,10.20
2023-04-06T04:24:18.759Z,11.00
2023-04-06T04:26:47.823Z,12.30
2023-04-06T04:29:16.640Z,10.80
2023-04-06T04:31:45.974Z,10.60
2023-04-06T04:34:17.847Z,9.50
2023-04-06T04:36:48.251Z,10.10
2023-04-06T04:39:22.907Z,9.90
2023-04-06T04:41:57.981Z,8.90
2023-04-06T04:44:26.823Z,10.30
2023-04-06T04:46:56.236Z,10.60
2023-04-06T04:49:32.093Z,9.80
2023-04-06T04:52:00.685Z,8.80
2023-04-06T04:54:42.297Z,9.40
2023-04-06T04:57:14.292Z,9.80
2023-04-06T04:59:45.708Z,8.60
2023-04-06T05:02:19.817Z,8.10
2023-04-06T05:05:11.281Z,8.30
2023-04-06T05:07:40.781Z,9.10
2023-04-06T05:10:14.471Z,9.50
2023-04-06T05:12:52.605Z,7.90
2023-04-06T05:15:21.494Z,10.50
2023-04-06T05:17:53.649Z,13.00
2023-04-06T05:20:26.240Z,10.30
2023-04-06T05:22:55.813Z,9.90
2023-04-06T05:25:29.876Z,8.60
2023-04-06T05:28:02.945Z,10.30
2023-04-06T05:30:38.977Z,9.60
2023-04-06T05:33:10.326Z,10.00
2023-04-06T05:35:48.595Z,9.00
2023-04-06T05:38:16.975Z,8.90
2023-04-06T05:40:45.218Z,9.80
2023-04-06T05:43:23.037Z,11.80
2023-04-06T05:45:55.026Z,11.00
2023-04-06T05:48:23.312Z,9.10
2023-04-06T05:50:54.555Z,8.50
2023-04-06T05:53:27.843Z,8.90
2023-04-06T05:56:03.214Z,9.30
2023-04-06T05:58:31.655Z,8.10
2023-04-06T06:01:00.501Z,8.10
2023-04-06T06:03:34.182Z,8.60
2023-04-06T06:06:03.652Z,9.10
2023-04-06T06:08:40.667Z,9.20
2023-04-06T06:11:17.765Z,9.20
2023-04-06T06:13:48.553Z,8.90
2023-04-06T06:16:17.998Z,8.30
2023-04-06T06:18:49.759Z,8.10
2023-04-06T06:21:18.618Z,9.30
2023-04-06T06:23:49.328Z,8.40
2023-04-06T06:26:19.541Z,8.70
2023-04-06T06:28:48.486Z,8.30
2023-04-06T06:31:17.385Z,9.80
2023-04-06T06:33:47.462Z,8.20
2023-04-06T06:36:15.849Z,8.20
2023-04-06T06:38:44.942Z,8.90
2023-04-06T06:41:17.567Z,10.40
2023-04-06T06:43:45.886Z,9.00
2023-04-06T06:46:14.229Z,10.50
2023-04-06T06:48:43.986Z,8.40
2023-04-06T06:51:13.502Z,9.90
2023-04-06T06:53:43.151Z,8.80
2023-04-06T06:56:14.041Z,9.90
2023-04-06T06:58:43.201Z,9.70
2023-04-06T07:01:12.664Z,9.90
2023-04-06T07:03:41.706Z,10.40
2023-04-06T07:06:14.868Z,8.80
2023-04-06T07:08:43.787Z,8.40
2023-04-06T07:11:13.509Z,8.10
2023-04-06T07:13:47.055Z,8.50
2023-04-06T07:16:16.757Z,7.90
2023-04-06T07:18:45.832Z,6.60
2023-04-06T07:21:15.522Z,8.10
2023-04-06T07:23:44.959Z,6.50
2023-04-06T07:26:13.618Z,13.80
2023-04-06T07:28:44.666Z,13.20
2023-04-06T07:31:14.111Z,13.40
2023-04-06T07:33:46.130Z,12.00
2023-04-06T07:36:19.333Z,11.50
2023-04-06T07:38:50.202Z,7.70
2023-04-06T07:41:19.434Z,12.50
2023-04-06T07:43:49.296Z,11.30
2023-04-06T07:46:17.636Z,10.50
2023-04-06T07:48:46.573Z,7.20
2023-04-06T07:51:16.074Z,11.90
2023-04-06T07:53:47.585Z,13.10
2023-04-06T07:56:16.649Z,12.90
2023-04-06T07:58:44.873Z,10.90
2023-04-06T08:01:13.187Z,11.50
2023-04-06T08:03:42.481Z,10.20
2023-04-06T08:06:11.058Z,10.70
2023-04-06T08:08:42.668Z,10.10
2023-04-06T08:11:11.642Z,8.30
2023-04-06T08:13:39.832Z,12.50
2023-04-06T08:16:08.694Z,11.80
2023-04-06T08:18:38.662Z,12.80
2023-04-06T08:21:06.911Z,18.20
2023-04-06T08:23:35.740Z,14.30
2023-04-06T08:26:05.404Z,11.90
2023-04-06T08:28:37.100Z,13.60
2023-04-06T08:31:08.338Z,11.30
2023-04-06T08:33:37.815Z,12.60
2023-04-06T08:36:15.579Z,6.70
2023-04-06T08:38:45.139Z,5.20
2023-04-06T08:41:18.136Z,6.20
2023-04-06T08:44:04.839Z,6.80
2023-04-06T08:46:33.592Z,6.00
2023-04-06T08:49:02.441Z,5.90
2023-04-06T08:51:31.805Z,5.40
2023-04-06T08:54:03.776Z,5.90
2023-04-06T08:56:34.661Z,6.00
2023-04-06T08:59:03.005Z,5.10
2023-04-06T09:01:31.756Z,6.90
2023-04-06T09:04:01.855Z,6.60
2023-04-06T09:06:31.892Z,6.90
2023-04-06T09:09:00.579Z,6.40
2023-04-06T09:11:29.068Z,4.50
2023-04-06T09:14:01.210Z,4.20
2023-04-06T09:16:29.788Z,5.40
2023-04-06T09:19:04.822Z,5.20
2023-04-06T09:21:34.032Z,5.70
2023-04-06T09:24:03.061Z,5.00
2023-04-06T09:29:05.302Z,5.10
2023-04-06T09:31:36.635Z,5.40
2023-04-06T09:34:04.954Z,4.70
2023-04-06T09:36:33.832Z,4.70
2023-04-06T09:39:05.536Z,3.80
2023-04-06T09:41:34.974Z,5.30
2023-04-06T09:44:03.998Z,6.10
2023-04-06T09:46:42.983Z,7.00
2023-04-06T09:49:19.518Z,7.70
2023-04-06T09:51:50.737Z,7.20
2023-04-06T09:54:24.954Z,5.90
2023-04-06T09:56:58.408Z,4.20
2023-04-06T09:59:26.917Z,4.50
2023-04-06T10:01:55.516Z,5.10
2023-04-06T10:05:18.007Z,5.30
2023-04-06T10:07:59.678Z,3.90
2023-04-06T10:10:31.685Z,5.30
2023-04-06T10:13:01.134Z,5.20
2023-04-06T10:15:32.620Z,5.00
2023-04-06T10:18:01.003Z,4.90
2023-04-06T10:20:30.568Z,5.10
2023-04-06T10:23:24.045Z,2.80
2023-04-06T10:25:58.865Z,4.20
2023-04-06T10:28:34.762Z,5.20
2023-04-06T10:31:05.565Z,5.80
2023-04-06T10:33:35.753Z,3.80
2023-04-06T10:36:16.815Z,4.70
2023-04-06T10:38:45.381Z,5.20
2023-04-06T10:41:13.827Z,5.00
2023-04-06T10:43:45.855Z,6.30
2023-04-06T10:46:18.712Z,5.90
2023-04-06T10:48:48.646Z,7.20
2023-04-06T10:51:18.402Z,7.80
2023-04-06T10:53:50.238Z,8.90
2023-04-06T10:56:18.787Z,9.10
2023-04-06T10:58:52.809Z,9.80
2023-04-06T11:01:22.416Z,4.20
2023-04-06T11:03:53.470Z,4.70
2023-04-06T11:06:30.026Z,4.40
2023-04-06T11:08:59.288Z,6.80
2023-04-06T11:11:27.900Z,6.30
2023-04-06T11:14:02.811Z,9.10
2023-04-06T11:16:32.283Z,8.00
2023-04-06T11:19:04.603Z,6.00
2023-04-06T11:21:35.472Z,6.80
2023-04-06T11:24:06.827Z,5.50
2023-04-06T11:26:38.841Z,6.40
2023-04-06T11:29:07.895Z,6.00
2023-04-06T11:31:40.501Z,8.40
2023-04-06T11:34:12.169Z,6.40
2023-04-06T11:36:42.459Z,6.90
2023-04-06T11:39:11.165Z,6.80
2023-04-06T11:41:39.681Z,6.90
2023-04-06T11:44:08.067Z,6.80
2023-04-06T11:46:36.499Z,5.60
2023-04-06T11:49:04.898Z,5.30
2023-04-06T11:51:36.784Z,5.20
2023-04-06T11:54:05.598Z,4.40
2023-04-06T11:56:34.220Z,4.00
2023-04-06T11:59:03.756Z,3.50
2023-04-06T12:01:36.985Z,3.50
2023-04-06T12:04:10.165Z,2.30
2023-04-06T12:06:40.998Z,2.20
2023-04-06T12:09:11.826Z,2.30
2023-04-06T12:11:40.238Z,1.90
2023-04-06T12:14:08.719Z,3.00
2023-04-06T12:16:38.209Z,2.90
2023-04-06T12:19:07.176Z,3.70
2023-04-06T12:21:38.051Z,6.10
2023-04-06T12:24:07.676Z,4.10
2023-04-06T12:26:38.474Z,4.20
2023-04-06T12:29:10.643Z,4.20
2023-04-06T12:31:47.072Z,4.50
2023-04-06T12:34:15.444Z,4.50
2023-04-06T12:36:43.663Z,3.80
2023-04-06T12:39:21.624Z,3.90
2023-04-06T12:41:49.988Z,4.70
2023-04-06T12:44:18.301Z,5.70
2023-04-06T12:46:47.861Z,9.30
2023-04-06T12:49:18.281Z,5.30
2023-04-06T12:51:47.832Z,5.00
2023-04-06T12:54:16.327Z,2.10
2023-04-06T12:56:46.622Z,4.00
2023-04-06T12:59:15.838Z,4.10
2023-04-06T13:01:45.300Z,2.20
2023-04-06T13:04:13.723Z,2.30
2023-04-06T13:06:46.061Z,2.10
2023-04-06T13:09:14.563Z,1.90
2023-04-06T13:11:42.932Z,1.60
2023-04-06T13:14:11.246Z,1.80
2023-04-06T13:16:42.296Z,2.20
2023-04-06T13:19:11.916Z,2.30
2023-04-06T13:21:43.541Z,2.20
2023-04-06T13:24:12.004Z,2.70
2023-04-06T13:26:42.128Z,1.90
2023-04-06T13:29:10.555Z,2.20
2023-04-06T13:31:40.017Z,1.60
2023-04-06T13:34:08.825Z,1.80
2023-04-06T13:36:37.363Z,2.70
2023-04-06T13:39:06.043Z,2.40
2023-04-06T13:41:36.251Z,2.70
2023-04-06T13:44:04.538Z,2.80
2023-04-06T13:46:33.373Z,3.00
2023-04-06T13:49:01.589Z,3.00
2023-04-06T13:51:29.983Z,3.80
2023-04-06T13:53:58.702Z,4.50
2023-04-06T13:56:27.275Z,4.70
2023-04-06T13:58:57.576Z,4.80
2023-04-06T14:01:27.827Z,5.50
2023-04-06T14:03:57.873Z,7.00
2023-04-06T14:06:31.752Z,5.70
2023-04-06T14:09:01.115Z,5.30
2023-04-06T14:11:33.517Z,5.40
2023-04-06T14:14:01.969Z,4.10
2023-04-06T14:16:32.467Z,3.40
2023-04-06T14:19:00.772Z,3.20
2023-04-06T14:21:29.351Z,3.30
2023-04-06T14:23:59.578Z,4.00
2023-04-06T14:26:28.678Z,3.60
2023-04-06T14:29:02.580Z,4.10
2023-04-06T14:31:31.399Z,3.10
2023-04-06T14:34:01.717Z,3.00
2023-04-06T14:36:37.374Z,3.50
2023-04-06T14:39:06.901Z,4.40
2023-04-06T14:41:35.261Z,3.10
2023-04-06T14:44:04.262Z,2.70
2023-04-06T14:46:33.681Z,2.70
2023-04-06T14:49:02.073Z,2.00
2023-04-06T14:51:30.590Z,2.20
2023-04-06T14:54:01.928Z,2.30
2023-04-06T14:56:32.382Z,2.20
2023-04-06T14:59:02.793Z,2.50
2023-04-06T15:01:35.331Z,2.30
2023-04-06T15:04:04.402Z,2.20
2023-04-06T15:06:34.495Z,2.50
2023-04-06T15:09:03.917Z,2.50
2023-04-06T15:11:32.150Z,2.70
2023-04-06T15:14:01.258Z,2.50
2023-04-06T15:16:33.746Z,2.10
2023-04-06T15:19:02.988Z,1.90
2023-04-06T15:21:33.705Z,2.10
2023-04-06T15:24:02.318Z,2.10
2023-04-06T15:26:31.075Z,2.00
2023-04-06T15:29:01.310Z,2.50
2023-04-06T15:31:37.693Z,1.90
2023-04-06T15:34:09.807Z,1.90
2023-04-06T15:36:39.036Z,2.50
2023-04-06T15:39:10.119Z,2.80
2023-04-06T15:41:39.775Z,2.70
2023-04-06T15:50:31.497Z,2.70
2023-04-06T15:53:01.067Z,2.90
2023-04-06T15:55:29.666Z,3.10
2023-04-06T15:57:57.823Z,3.00
2023-04-06T16:00:26.585Z,2.90
2023-04-06T16:03:02.705Z,3.50
2023-04-06T16:05:34.448Z,4.40
2023-04-06T16:08:11.138Z,3.50
2023-04-06T16:10:40.475Z,3.60
2023-04-06T16:13:08.648Z,2.90
2023-04-06T16:15:37.876Z,2.90
2023-04-06T16:18:07.139Z,2.90
2023-04-06T16:20:35.614Z,3.40
2023-04-06T16:23:03.954Z,3.80
2023-04-06T16:25:32.342Z,16.50
2023-04-06T16:28:01.492Z,6.80
2023-04-06T16:30:32.084Z,8.30
2023-04-06T16:33:00.695Z,7.60
2023-04-06T16:35:29.093Z,6.90
2023-04-06T16:37:57.268Z,9.20
2023-04-06T16:40:25.874Z,6.70
2023-04-06T16:42:55.466Z,8.50
2023-04-06T16:45:23.784Z,5.50
2023-04-06T16:47:52.297Z,4.80
2023-04-06T16:50:20.513Z,3.70
2023-04-06T16:52:49.219Z,3.90
2023-04-06T16:55:17.580Z,2.90
2023-04-06T16:57:49.472Z,3.50
2023-04-06T17:00:18.026Z,3.60
2023-04-06T17:02:47.374Z,4.50
2023-04-06T17:05:20.873Z,5.90
2023-04-06T17:07:49.178Z,5.60
2023-04-06T17:10:19.286Z,5.60
2023-04-06T17:12:55.077Z,6.70
2023-04-06T17:15:25.068Z,8.00
2023-04-06T17:17:54.218Z,7.40
2023-04-06T17:20:23.031Z,7.30
2023-04-06T17:22:51.725Z,7.30
2023-04-06T17:25:20.237Z,4.70
2023-04-06T17:27:48.462Z,4.30
2023-04-06T17:30:18.387Z,5.00
2023-04-06T17:32:48.085Z,6.10
2023-04-06T17:35:16.525Z,6.80
2023-04-06T17:37:45.857Z,7.20
2023-04-06T17:40:14.038Z,7.40
2023-04-06T17:42:42.522Z,10.10
2023-04-06T17:45:11.195Z,10.30
2023-04-06T17:47:40.103Z,11.80
2023-04-06T17:50:08.910Z,15.10
2023-04-06T17:52:37.587Z,11.20
2023-04-06T17:55:07.846Z,10.30
2023-04-06T17:57:39.955Z,12.80
2023-04-06T18:00:12.069Z,9.60
2023-04-06T18:02:41.532Z,7.90
2023-04-06T18:05:09.894Z,5.20
2023-04-06T18:07:39.169Z,5.80
2023-04-06T18:10:08.979Z,3.90
2023-04-06T18:12:37.389Z,4.50
2023-04-06T18:15:06.342Z,4.60
2023-04-06T18:17:35.059Z,4.00
2023-04-06T18:20:03.647Z,4.30
2023-04-06T18:22:37.412Z,4.00
2023-04-06T18:25:05.821Z,3.90
2023-04-06T18:27:34.233Z,4.70
2023-04-06T18:30:04.519Z,4.90
2023-04-06T18:32:32.949Z,5.10
2023-04-06T18:35:01.751Z,5.20
2023-04-06T18:37:31.453Z,5.40
2023-04-06T18:39:59.758Z,6.10
2023-04-06T18:42:28.154Z,6.30
2023-04-06T18:44:56.644Z,5.70
2023-04-06T18:47:26.991Z,5.40
2023-04-06T18:49:55.626Z,4.50
2023-04-06T18:52:24.600Z,5.00
2023-04-06T18:54:52.773Z,5.10
2023-04-06T18:57:22.263Z,5.10
2023-04-06T18:59:50.451Z,5.00
2023-04-06T19:02:18.862Z,5.10
2023-04-06T19:04:47.303Z,6.10
2023-04-06T19:07:16.884Z,6.20
2023-04-06T19:09:47.894Z,6.30
2023-04-06T19:12:17.006Z,5.20
2023-04-06T19:14:52.301Z,5.60
2023-04-06T19:17:24.146Z,5.00
2023-04-06T19:19:53.380Z,5.60
2023-04-06T19:22:21.752Z,5.60
2023-04-06T19:24:50.795Z,5.20
2023-04-06T19:27:19.160Z,5.10
2023-04-06T19:29:52.092Z,5.60
2023-04-06T19:32:21.441Z,5.40
2023-04-06T19:34:49.734Z,5.50
2023-04-06T19:37:17.847Z,5.30
2023-04-06T19:39:47.400Z,5.40
2023-04-06T19:42:15.805Z,4.70
2023-04-06T19:44:43.977Z,4.70
2023-04-06T19:47:15.209Z,4.90
2023-04-06T19:49:43.592Z,5.10
2023-04-06T19:52:11.784Z,4.70
2023-04-06T19:54:41.172Z,5.20
2023-04-06T19:57:09.414Z,4.80
2023-04-06T19:59:38.375Z,4.90
2023-04-06T20:02:08.291Z,5.30
2023-04-06T20:04:37.357Z,5.00
2023-04-06T20:07:05.911Z,4.80
2023-04-06T20:09:34.083Z,4.50
2023-04-06T20:12:02.657Z,5.30
2023-04-06T20:14:31.288Z,3.70
2023-04-06T20:16:59.741Z,4.40
2023-04-06T20:19:30.600Z,4.10
2023-04-06T20:22:00.662Z,4.60
2023-04-06T20:24:35.758Z,4.80
2023-04-06T20:27:03.988Z,4.90
2023-04-06T20:29:32.126Z,4.80
2023-04-06T20:32:01.795Z,4.80
2023-04-06T20:34:30.550Z,4.60
2023-04-06T20:36:58.784Z,4.80
2023-04-06T20:39:27.544Z,5.30
2023-04-06T20:41:56.557Z,5.00
2023-04-06T20:44:26.587Z,4.40
2023-04-06T20:46:55.025Z,4.30
2023-04-06T20:49:24.799Z,4.90
2023-04-06T20:51:53.115Z,5.00
2023-04-06T20:54:22.203Z,4.30
2023-04-06T20:56:50.458Z,4.50
2023-04-06T20:59:18.758Z,5.00
2023-04-06T21:01:46.928Z,4.30
2023-04-06T21:04:16.571Z,4.70
2023-04-06T21:06:45.722Z,4.10
2023-04-06T21:09:14.765Z,4.70
2023-04-06T21:11:45.209Z,4.60
2023-04-06T21:14:13.698Z,4.60
2023-04-06T21:16:43.806Z,4.00
2023-04-06T21:19:12.023Z,3.70
2023-04-06T21:21:40.221Z,3.90
2023-04-06T21:24:11.796Z,3.90
2023-04-06T21:26:40.885Z,4.30
2023-04-06T21:29:08.994Z,4.20
2023-04-06T21:31:42.353Z,4.20
2023-04-06T21:34:12.089Z,4.60
2023-04-06T21:36:41.493Z,4.20
2023-04-06T21:39:10.418Z,4.00
2023-04-06T21:41:40.486Z,4.50
2023-04-06T21:44:08.748Z,4.00
2023-04-06T21:46:37.058Z,4.30
2023-04-06T21:49:05.655Z,4.20
2023-04-06T21:51:34.252Z,3.70
2023-04-06T21:54:02.802Z,4.60
2023-04-06T21:56:31.167Z,5.80
2023-04-06T21:58:59.439Z,6.20
2023-04-06T22:01:28.440Z,6.20
2023-04-06T22:03:57.062Z,6.50
2023-04-06T22:06:26.063Z,7.50
2023-04-06T22:08:54.662Z,6.60
2023-04-06T22:11:25.880Z,6.40
2023-04-06T22:13:55.213Z,7.20
2023-04-06T22:16:23.498Z,6.60
2023-04-06T22:18:55.563Z,6.70
2023-04-06T22:23:14.425Z,6.40
2023-04-06T22:25:48.593Z,4.90
2023-04-06T22:28:16.985Z,5.20
2023-04-06T22:30:45.207Z,6.30
2023-04-06T22:33:15.043Z,8.30
2023-04-06T22:35:43.422Z,8.90
2023-04-06T22:38:12.010Z,9.00
2023-04-06T22:40:41.204Z,9.40
2023-04-06T22:43:09.975Z,9.10
2023-04-06T22:45:39.044Z,9.00
2023-04-06T22:48:07.350Z,8.80
2023-04-06T22:50:35.862Z,9.40
2023-04-06T22:53:03.972Z,9.30
2023-04-06T22:55:32.250Z,10.40
2023-04-06T22:58:00.522Z,9.70
2023-04-06T23:00:28.693Z,9.10
2023-04-06T23:02:58.228Z,8.10
2023-04-06T23:05:26.526Z,8.00
2023-04-06T23:07:55.587Z,6.90
2023-04-06T23:10:29.010Z,5.70
2023-04-06T23:12:57.495Z,7.50
2023-04-06T23:15:25.935Z,7.30
2023-04-06T23:17:54.306Z,6.40
2023-04-06T23:20:22.788Z,7.10
2023-04-06T23:22:51.767Z,6.80
2023-04-06T23:25:20.537Z,6.70
2023-04-06T23:27:48.692Z,6.80
2023-04-06T23:30:16.966Z,6.60
2023-04-06T23:32:46.651Z,6.70
2023-04-06T23:35:15.662Z,6.60
2023-04-06T23:37:45.408Z,6.90
2023-04-06T23:40:13.610Z,6.40
2023-04-06T23:42:41.836Z,6.80
2023-04-06T23:45:10.324Z,6.80
2023-04-06T23:47:38.576Z,6.80
2023-04-06T23:50:07.147Z,6.70
2023-04-06T23:52:35.609Z,7.00
2023-04-06T23:55:04.048Z,6.30
2023-04-06T23:57:32.969Z,5.90
